createdAt,value
2018-01-05T00:01:30.281Z,32.07
2018-01-05T00:03:57.898Z,21.90
2018-01-05T00:06:27.044Z,14.43
2018-01-05T00:08:54.670Z,18.23
2018-01-05T00:11:23.040Z,29.30
2018-01-05T00:13:50.660Z,19.00
2018-01-05T00:16:18.291Z,28.37
2018-01-05T00:18:45.909Z,25.53
2018-01-05T00:21:13.572Z,20.90
2018-01-05T00:23:41.196Z,28.23
2018-01-05T00:26:08.770Z,20.23
2018-01-05T00:28:36.381Z,26.20
2018-01-05T00:31:04.760Z,19.33
2018-01-05T00:33:33.124Z,25.63
2018-01-05T00:36:00.700Z,25.57
2018-01-05T00:38:29.070Z,26.63
2018-01-05T00:40:57.409Z,13.03
2018-01-05T00:43:25.021Z,21.53
2018-01-05T00:45:52.604Z,21.33
2018-01-05T00:48:20.204Z,20.80
2018-01-05T00:50:47.779Z,16.53
2018-01-05T00:53:16.146Z,14.80
2018-01-05T00:55:43.722Z,22.73
2018-01-05T00:58:12.082Z,25.60
2018-01-05T01:00:39.657Z,24.63
2018-01-05T01:03:07.263Z,24.10
2018-01-05T01:05:34.838Z,20.17
2018-01-05T01:08:02.438Z,20.13
2018-01-05T01:10:30.774Z,17.80
2018-01-05T01:12:58.374Z,19.30
2018-01-05T01:15:26.720Z,22.10
2018-01-05T01:17:54.313Z,21.03
2018-01-05T01:20:21.900Z,18.03
2018-01-05T01:22:50.256Z,15.77
2018-01-05T01:25:17.830Z,15.10
2018-01-05T01:27:45.425Z,18.87
2018-01-05T01:30:12.996Z,17.27
2018-01-05T01:32:40.597Z,19.43
2018-01-05T01:35:08.177Z,28.47
2018-01-05T01:37:35.776Z,24.93
2018-01-05T01:40:03.350Z,12.13
2018-01-05T01:42:31.696Z,22.27
2018-01-05T01:44:59.304Z,20.27
2018-01-05T01:47:26.882Z,21.63
2018-01-05T01:49:54.473Z,18.00
2018-01-05T01:52:22.044Z,18.80
2018-01-05T01:54:49.649Z,12.37
2018-01-05T01:57:17.228Z,23.57
2018-01-05T01:59:44.819Z,20.57
2018-01-05T02:02:12.397Z,10.77
2018-01-05T02:04:39.991Z,10.60
2018-01-05T02:07:07.557Z,20.63
2018-01-05T02:09:35.157Z,10.30
2018-01-05T02:12:02.724Z,12.93
2018-01-05T02:14:30.317Z,26.63
2018-01-05T02:16:58.654Z,14.53
2018-01-05T02:19:26.257Z,21.07
2018-01-05T02:21:53.829Z,19.53
2018-01-05T02:24:23.071Z,11.17
2018-01-05T02:26:50.646Z,19.23
2018-01-05T02:29:18.245Z,19.90
2018-01-05T02:31:45.814Z,18.70
2018-01-05T02:34:13.409Z,22.10
2018-01-05T02:36:40.982Z,10.93
2018-01-05T02:39:08.573Z,11.27
2018-01-05T02:41:36.151Z,20.13
2018-01-05T02:44:03.748Z,12.87
2018-01-05T02:46:31.327Z,17.97
2018-01-05T02:48:58.925Z,14.77
2018-01-05T02:51:26.495Z,18.33
2018-01-05T02:53:54.099Z,23.20
2018-01-05T02:56:21.666Z,14.20
2018-01-05T02:58:50.015Z,16.03
2018-01-05T03:01:17.623Z,20.27
2018-01-05T03:03:45.215Z,12.63
2018-01-05T03:06:12.811Z,19.57
2018-01-05T03:08:40.382Z,22.77
2018-01-05T03:11:07.969Z,24.60
2018-01-05T03:13:35.545Z,13.77
2018-01-05T03:16:03.134Z,21.50
2018-01-05T03:18:30.705Z,16.20
2018-01-05T03:20:58.332Z,15.63
2018-01-05T03:23:25.910Z,14.00
2018-01-05T03:25:53.505Z,17.70
2018-01-05T03:28:21.841Z,19.97
2018-01-05T03:30:49.438Z,12.50
2018-01-05T03:33:17.778Z,18.33
2018-01-05T03:35:45.370Z,18.90
2018-01-05T03:38:12.941Z,15.00
2018-01-05T03:40:41.298Z,15.07
2018-01-05T03:43:08.876Z,16.10
2018-01-05T03:45:37.234Z,18.83
2018-01-05T03:48:05.586Z,17.83
2018-01-05T03:50:33.178Z,11.93
2018-01-05T03:53:00.759Z,13.40
2018-01-05T03:55:28.348Z,16.63
2018-01-05T03:57:55.917Z,19.07
2018-01-05T04:00:23.573Z,11.87
2018-01-05T04:02:51.125Z,14.17
2018-01-05T04:05:18.715Z,11.47
2018-01-05T04:07:46.286Z,14.37
2018-01-05T04:10:13.884Z,12.33
2018-01-05T04:12:41.458Z,12.97
2018-01-05T04:15:09.038Z,7.93
2018-01-05T04:17:36.638Z,15.27
2018-01-05T04:20:05.021Z,7.30
2018-01-05T04:22:33.378Z,9.70
2018-01-05T04:25:00.964Z,11.80
2018-01-05T04:27:28.554Z,10.17
2018-01-05T04:29:56.890Z,18.67
2018-01-05T04:32:24.488Z,9.23
2018-01-05T04:34:52.053Z,10.37
2018-01-05T04:37:19.646Z,11.30
2018-01-05T04:39:47.213Z,10.33
2018-01-05T04:42:14.835Z,15.63
2018-01-05T04:44:42.405Z,8.63
2018-01-05T04:47:10.004Z,11.73
2018-01-05T04:49:38.340Z,8.63
2018-01-05T04:52:05.933Z,4.70
2018-01-05T04:54:34.274Z,13.13
2018-01-05T04:57:01.866Z,9.93
2018-01-05T04:59:29.438Z,6.90
2018-01-05T05:01:57.808Z,9.03
2018-01-05T05:04:25.405Z,6.23
2018-01-05T05:06:53.599Z,14.67
2018-01-05T05:09:21.738Z,12.40
2018-01-05T05:11:50.092Z,12.40
2018-01-05T05:14:18.206Z,9.53
2018-01-05T05:16:47.150Z,9.07
2018-01-05T05:19:15.221Z,9.47
2018-01-05T05:21:43.745Z,7.43
2018-01-05T05:24:11.848Z,7.53
2018-01-05T05:26:40.237Z,5.93
2018-01-05T05:29:08.382Z,9.47
2018-01-05T05:31:36.406Z,6.93
2018-01-05T05:34:04.636Z,10.07
2018-01-05T05:36:35.667Z,7.83
2018-01-05T05:39:04.896Z,8.87
2018-01-05T05:41:32.999Z,6.33
2018-01-05T05:44:03.584Z,10.37
2018-01-05T05:46:31.690Z,7.23
2018-01-05T05:49:00.289Z,10.17
2018-01-05T05:51:28.947Z,12.33
2018-01-05T05:53:57.053Z,5.17
2018-01-05T05:56:25.747Z,7.17
2018-01-05T05:58:53.880Z,9.50
2018-01-05T06:01:22.224Z,11.47
2018-01-05T06:03:50.472Z,6.87
2018-01-05T06:06:19.095Z,6.37
2018-01-05T06:08:48.074Z,6.10
2018-01-05T06:11:18.063Z,7.30
2018-01-05T06:13:46.152Z,10.87
2018-01-05T06:16:15.836Z,7.77
2018-01-05T06:18:43.902Z,5.80
2018-01-05T06:21:11.905Z,8.73
2018-01-05T06:23:40.502Z,4.33
2018-01-05T06:26:08.594Z,7.13
2018-01-05T06:28:36.819Z,10.33
2018-01-05T06:31:05.700Z,6.87
2018-01-05T06:33:33.531Z,10.13
2018-01-05T06:36:01.480Z,7.77
2018-01-05T06:38:29.916Z,9.27
2018-01-05T06:40:58.531Z,6.67
2018-01-05T06:43:26.618Z,6.80
2018-01-05T06:45:54.896Z,6.90
2018-01-05T06:48:23.771Z,5.00
2018-01-05T06:50:52.712Z,6.77
2018-01-05T06:53:21.408Z,6.97
2018-01-05T06:55:49.578Z,7.97
2018-01-05T06:58:19.024Z,6.43
2018-01-05T07:00:47.239Z,7.53
2018-01-05T07:03:16.047Z,13.60
2018-01-05T07:05:44.232Z,10.03
2018-01-05T07:08:12.270Z,11.10
2018-01-05T07:10:40.291Z,8.70
2018-01-05T07:13:08.736Z,7.90
2018-01-05T07:15:36.817Z,6.90
2018-01-05T07:18:05.542Z,10.43
2018-01-05T07:20:33.929Z,12.27
2018-01-05T07:23:02.390Z,5.23
2018-01-05T07:25:31.376Z,2.67
2018-01-05T07:28:00.780Z,6.23
2018-01-05T07:30:29.090Z,6.40
2018-01-05T07:32:57.154Z,3.40
2018-01-05T07:35:25.801Z,6.50
2018-01-05T07:37:54.590Z,5.30
2018-01-05T07:40:27.254Z,6.13
2018-01-05T07:42:55.826Z,8.57
2018-01-05T07:45:23.967Z,6.17
2018-01-05T07:47:52.193Z,5.23
2018-01-05T07:50:20.324Z,4.00
2018-01-05T07:52:48.680Z,2.40
2018-01-05T07:55:18.435Z,4.00
2018-01-05T07:57:46.490Z,3.17
2018-01-05T08:00:15.064Z,3.63
2018-01-05T08:02:43.871Z,1.70
2018-01-05T08:05:11.522Z,2.40
2018-01-05T08:07:39.091Z,3.13
2018-01-05T08:10:06.695Z,4.77
2018-01-05T08:12:34.271Z,4.93
2018-01-05T08:15:02.657Z,2.57
2018-01-05T08:17:30.233Z,2.23
2018-01-05T08:19:57.834Z,5.70
2018-01-05T08:22:25.406Z,3.23
2018-01-05T08:24:53.023Z,3.87
2018-01-05T08:27:20.627Z,3.57
2018-01-05T08:29:48.206Z,3.37
2018-01-05T08:32:16.563Z,4.07
2018-01-05T08:34:44.134Z,2.90
2018-01-05T08:37:12.499Z,4.17
2018-01-05T08:39:40.069Z,4.60
2018-01-05T08:42:07.663Z,2.10
2018-01-05T08:44:35.235Z,2.20
2018-01-05T08:47:02.833Z,5.43
2018-01-05T08:49:30.401Z,2.70
2018-01-05T08:51:58.000Z,1.73
2018-01-05T08:54:25.575Z,1.70
2018-01-05T08:56:53.170Z,2.63
2018-01-05T08:59:20.742Z,3.97
2018-01-05T09:01:48.343Z,1.30
2018-01-05T09:04:16.060Z,3.53
2018-01-05T09:06:43.658Z,3.90
2018-01-05T09:09:11.233Z,1.50
2018-01-05T09:11:38.839Z,2.43
2018-01-05T09:14:06.413Z,2.63
2018-01-05T09:16:34.011Z,1.73
2018-01-05T09:19:01.590Z,1.23
2018-01-05T09:21:29.194Z,1.73
2018-01-05T09:23:57.536Z,2.03
2018-01-05T09:26:25.125Z,2.27
2018-01-05T09:28:53.517Z,3.00
2018-01-05T09:31:21.879Z,2.17
2018-01-05T09:33:50.205Z,4.03
2018-01-05T09:36:18.565Z,1.97
2018-01-05T09:38:46.135Z,3.20
2018-01-05T09:41:13.774Z,1.33
2018-01-05T09:43:41.353Z,1.57
2018-01-05T09:46:08.954Z,1.40
2018-01-05T09:48:36.558Z,2.23
2018-01-05T09:51:04.138Z,1.87
2018-01-05T09:53:31.731Z,1.30
2018-01-05T09:55:59.376Z,3.50
2018-01-05T09:58:26.977Z,1.70
2018-01-05T10:00:55.317Z,2.33
2018-01-05T10:03:22.921Z,1.10
2018-01-05T10:05:51.258Z,1.70
2018-01-05T10:08:18.864Z,1.83
2018-01-05T10:10:46.433Z,1.83
2018-01-05T10:13:14.024Z,6.03
2018-01-05T10:15:41.605Z,1.40
2018-01-05T10:18:09.209Z,5.00
2018-01-05T10:20:36.782Z,5.13
2018-01-05T10:23:05.157Z,3.60
2018-01-05T10:25:33.495Z,2.30
2018-01-05T10:28:01.126Z,5.23
2018-01-05T10:30:28.700Z,6.27
2018-01-05T10:32:56.290Z,2.17
2018-01-05T10:35:23.863Z,2.07
2018-01-05T10:37:51.458Z,1.60
2018-01-05T10:40:19.041Z,2.03
2018-01-05T10:42:47.430Z,1.53
2018-01-05T10:45:15.003Z,1.80
2018-01-05T10:47:42.612Z,1.50
2018-01-05T10:50:10.218Z,1.77
2018-01-05T10:52:37.834Z,1.50
2018-01-05T10:55:05.403Z,1.57
2018-01-05T10:57:35.041Z,1.20
2018-01-05T11:00:02.670Z,2.50
2018-01-05T11:02:30.242Z,1.93
2018-01-05T11:04:58.452Z,2.23
2018-01-05T11:07:26.028Z,2.23
2018-01-05T11:09:53.626Z,1.80
2018-01-05T11:12:21.218Z,1.77
2018-01-05T11:14:48.834Z,2.27
2018-01-05T11:17:16.413Z,6.20
2018-01-05T11:19:44.016Z,1.50
2018-01-05T11:22:15.100Z,1.93
2018-01-05T11:24:43.675Z,2.60
2018-01-05T11:27:11.338Z,2.37
2018-01-05T11:29:38.939Z,2.57
2018-01-05T11:32:07.283Z,1.57
2018-01-05T11:34:34.912Z,1.80
2018-01-05T11:37:03.249Z,1.20
2018-01-05T11:39:31.615Z,1.80
2018-01-05T11:41:59.185Z,1.50
2018-01-05T11:44:27.551Z,3.07
2018-01-05T11:46:55.125Z,1.40
2018-01-05T11:49:22.722Z,3.93
2018-01-05T11:51:50.306Z,1.30
2018-01-05T11:54:17.898Z,2.43
2018-01-05T11:56:46.238Z,3.60
2018-01-05T11:59:13.834Z,2.17
2018-01-05T12:01:42.167Z,2.53
2018-01-05T12:04:09.766Z,1.50
2018-01-05T12:06:38.106Z,4.90
2018-01-05T12:09:05.701Z,5.20
2018-01-05T12:11:34.046Z,2.00
2018-01-05T12:14:02.542Z,5.13
2018-01-05T12:16:30.289Z,8.40
2018-01-05T12:18:59.519Z,6.13
2018-01-05T12:21:27.138Z,7.43
2018-01-05T12:23:54.716Z,4.90
2018-01-05T12:26:22.315Z,3.33
2018-01-05T12:28:50.649Z,4.57
2018-01-05T12:31:18.246Z,2.83
2018-01-05T12:33:45.819Z,2.53
2018-01-05T12:36:13.411Z,4.17
2018-01-05T12:38:41.004Z,4.20
2018-01-05T12:41:08.608Z,5.80
2018-01-05T12:43:36.186Z,2.53
2018-01-05T12:46:03.781Z,3.40
2018-01-05T12:48:31.358Z,5.57
2018-01-05T12:50:59.060Z,4.23
2018-01-05T12:53:26.631Z,6.87
2018-01-05T12:55:54.994Z,3.07
2018-01-05T12:58:22.567Z,6.07
2018-01-05T13:00:50.194Z,3.30
2018-01-05T13:03:17.770Z,4.73
2018-01-05T13:05:45.393Z,3.40
2018-01-05T13:08:13.735Z,7.70
2018-01-05T13:10:41.346Z,4.53
2018-01-05T13:13:08.919Z,5.07
2018-01-05T13:15:36.535Z,9.03
2018-01-05T13:18:04.105Z,6.73
2018-01-05T13:20:32.464Z,5.07
2018-01-05T13:23:00.045Z,5.60
2018-01-05T13:25:27.646Z,2.87
2018-01-05T13:27:55.231Z,3.10
2018-01-05T13:30:22.811Z,7.73
2018-01-05T13:32:50.410Z,6.83
2018-01-05T13:35:17.990Z,2.53
2018-01-05T13:37:45.883Z,3.83
2018-01-05T13:40:14.329Z,14.90
2018-01-05T13:42:42.663Z,3.27
2018-01-05T13:45:11.104Z,5.77
2018-01-05T13:47:38.718Z,5.40
2018-01-05T13:50:07.057Z,6.33
2018-01-05T13:52:34.649Z,4.63
2018-01-05T13:55:02.990Z,4.43
2018-01-05T13:57:30.578Z,7.63
2018-01-05T13:59:58.978Z,4.30
2018-01-05T14:02:26.555Z,3.37
2018-01-05T14:04:54.905Z,3.80
2018-01-05T14:07:23.271Z,2.27
2018-01-05T14:09:51.605Z,6.80
2018-01-05T14:12:19.215Z,3.70
2018-01-05T14:14:48.225Z,3.73
2018-01-05T14:17:15.820Z,4.53
2018-01-05T14:19:43.398Z,4.47
2018-01-05T14:22:11.016Z,3.87
2018-01-05T14:24:38.637Z,8.60
2018-01-05T14:27:06.229Z,4.73
2018-01-05T14:29:33.797Z,3.90
2018-01-05T14:32:02.291Z,3.77
2018-01-05T14:34:29.879Z,4.47
2018-01-05T14:36:57.513Z,4.30
2018-01-05T14:39:25.095Z,3.40
2018-01-05T14:41:52.701Z,4.13
2018-01-05T14:50:23.718Z,2.87
2018-01-05T14:52:51.310Z,3.77
2018-01-05T14:55:18.878Z,3.53
2018-01-05T14:57:47.245Z,5.83
2018-01-05T15:00:15.579Z,4.50
2018-01-05T15:02:43.178Z,3.20
2018-01-05T15:05:11.510Z,3.23
2018-01-05T15:07:39.107Z,10.77
2018-01-05T15:10:06.706Z,21.83
2018-01-05T15:12:34.306Z,28.90
2018-01-05T15:15:01.891Z,10.10
2018-01-05T15:17:30.241Z,6.17
2018-01-05T15:19:57.810Z,4.90
2018-01-05T15:22:25.403Z,8.10
2018-01-05T15:24:52.983Z,7.70
2018-01-05T15:27:20.548Z,5.33
2018-01-05T15:29:48.142Z,7.47
2018-01-05T15:32:16.589Z,12.50
2018-01-05T15:34:44.329Z,7.57
2018-01-05T15:37:11.962Z,13.60
2018-01-05T15:39:39.615Z,7.60
2018-01-05T15:42:07.433Z,3.33
2018-01-05T15:44:35.118Z,1.60
2018-01-05T15:47:03.479Z,4.17
2018-01-05T15:49:32.390Z,7.60
2018-01-05T15:52:00.590Z,7.50
2018-01-05T15:54:30.851Z,6.00
2018-01-05T15:56:59.922Z,4.63
2018-01-05T15:59:28.118Z,3.87
2018-01-05T16:01:56.730Z,4.40
2018-01-05T16:04:24.926Z,2.60
2018-01-05T16:06:53.751Z,3.17
2018-01-05T16:09:21.978Z,3.13
2018-01-05T16:11:50.287Z,5.80
2018-01-05T16:14:18.286Z,4.00
2018-01-05T16:16:47.108Z,4.50
2018-01-05T16:19:15.464Z,3.50
2018-01-05T16:21:43.435Z,7.30
2018-01-05T16:24:11.890Z,3.67
2018-01-05T16:26:41.712Z,2.23
2018-01-05T16:29:09.857Z,2.20
2018-01-05T16:31:37.813Z,2.20
2018-01-05T16:34:05.780Z,2.33
2018-01-05T16:36:34.252Z,3.30
2018-01-05T16:39:02.454Z,3.87
2018-01-05T16:41:30.329Z,1.87
2018-01-05T16:43:59.019Z,4.10
2018-01-05T16:46:27.270Z,5.70
2018-01-05T16:48:55.779Z,2.30
2018-01-05T16:51:24.372Z,6.10
2018-01-05T16:53:52.723Z,6.87
2018-01-05T16:56:21.845Z,5.00
2018-01-05T16:58:50.004Z,4.03
2018-01-05T17:01:18.193Z,14.63
2018-01-05T17:03:46.307Z,8.80
2018-01-05T17:06:14.292Z,5.83
2018-01-05T17:08:42.248Z,3.60
2018-01-05T17:11:10.268Z,2.60
2018-01-05T17:13:38.364Z,2.80
2018-01-05T17:16:07.310Z,2.50
2018-01-05T17:18:35.228Z,2.30
2018-01-05T17:21:03.300Z,5.00
2018-01-05T17:23:32.066Z,2.70
2018-01-05T17:26:00.294Z,7.00
2018-01-05T17:28:28.783Z,5.87
2018-01-05T17:30:56.971Z,6.53
2018-01-05T17:33:25.100Z,8.27
2018-01-05T17:35:53.506Z,3.93
2018-01-05T17:38:22.237Z,4.23
2018-01-05T17:40:50.495Z,28.17
2018-01-05T17:43:18.711Z,3.37
2018-01-05T17:45:46.981Z,10.60
2018-01-05T17:48:15.008Z,17.07
2018-01-05T17:50:43.225Z,9.23
2018-01-05T17:53:11.213Z,11.97
2018-01-05T17:55:39.515Z,15.97
2018-01-05T17:58:07.827Z,11.03
2018-01-05T18:00:35.813Z,4.93
2018-01-05T18:03:04.585Z,3.93
2018-01-05T18:05:32.507Z,4.67
2018-01-05T18:08:00.535Z,1.73
2018-01-05T18:10:28.706Z,4.27
2018-01-05T18:12:58.099Z,3.30
2018-01-05T18:15:26.878Z,2.63
2018-01-05T18:17:54.948Z,2.27
2018-01-05T18:20:23.338Z,2.60
2018-01-05T18:22:51.030Z,5.03
2018-01-05T18:25:19.368Z,2.87
2018-01-05T18:27:47.002Z,5.50
2018-01-05T18:30:14.617Z,4.30
2018-01-05T18:32:42.252Z,2.27
2018-01-05T18:35:09.818Z,1.90
2018-01-05T18:37:37.453Z,3.37
2018-01-05T18:40:05.115Z,4.73
2018-01-05T18:42:32.779Z,2.97
2018-01-05T18:45:00.388Z,4.43
2018-01-05T18:47:28.029Z,2.70
2018-01-05T18:49:55.650Z,2.97
2018-01-05T18:52:23.233Z,6.33
2018-01-05T18:54:50.855Z,4.23
2018-01-05T18:57:18.505Z,4.63
2018-01-05T18:59:46.129Z,2.90
2018-01-05T19:02:13.748Z,3.33
2018-01-05T19:04:41.365Z,6.10
2018-01-05T19:07:09.008Z,2.93
2018-01-05T19:09:37.419Z,7.20
2018-01-05T19:12:05.045Z,8.40
2018-01-05T19:14:32.665Z,60.83
2018-01-05T19:17:00.288Z,10.80
2018-01-05T19:19:28.604Z,9.90
2018-01-05T19:21:56.217Z,7.20
2018-01-05T19:24:23.852Z,13.10
2018-01-05T19:26:51.485Z,12.63
2018-01-05T19:29:19.964Z,29.40
2018-01-05T19:31:47.587Z,17.90
2018-01-05T19:34:15.234Z,14.80
2018-01-05T19:36:42.860Z,3.30
2018-01-05T19:39:10.609Z,3.10
2018-01-05T19:41:38.237Z,4.90
2018-01-05T19:44:08.138Z,4.73
2018-01-05T19:46:35.801Z,1.97
2018-01-05T19:49:03.432Z,2.20
2018-01-05T19:51:31.053Z,2.97
2018-01-05T19:53:59.200Z,1.60
2018-01-05T19:56:26.813Z,2.60
2018-01-05T19:58:54.593Z,4.20
2018-01-05T20:01:22.677Z,3.03
2018-01-05T20:03:50.310Z,3.90
2018-01-05T20:06:17.933Z,9.90
2018-01-05T20:08:45.565Z,2.10
2018-01-05T20:11:13.190Z,2.10
2018-01-05T20:13:40.837Z,8.40
2018-01-05T20:16:08.507Z,10.13
2018-01-05T20:18:36.151Z,6.33
2018-01-05T20:21:03.768Z,10.47
2018-01-05T20:23:32.312Z,6.23
2018-01-05T20:26:00.750Z,2.57
2018-01-05T20:28:29.189Z,1.53
2018-01-05T20:30:57.913Z,4.70
2018-01-05T20:33:26.373Z,1.97
2018-01-05T20:35:54.077Z,2.27
2018-01-05T20:38:21.689Z,3.00
2018-01-05T20:40:49.330Z,2.43
2018-01-05T20:43:16.953Z,1.83
2018-01-05T20:45:44.897Z,1.87
2018-01-05T20:48:13.372Z,2.03
2018-01-05T20:50:41.133Z,2.00
2018-01-05T20:53:09.844Z,4.80
2018-01-05T20:55:37.598Z,3.70
2018-01-05T20:58:05.289Z,3.83
2018-01-05T21:00:33.225Z,5.47
2018-01-05T21:03:01.611Z,2.90
2018-01-05T21:05:30.025Z,3.13
2018-01-05T21:07:57.659Z,6.73
2018-01-05T21:10:25.375Z,7.07
2018-01-05T21:12:53.040Z,2.60
2018-01-05T21:15:21.466Z,6.27
2018-01-05T21:17:49.163Z,2.93
2018-01-05T21:20:17.035Z,2.63
2018-01-05T21:22:44.765Z,4.80
2018-01-05T21:25:12.480Z,3.07
2018-01-05T21:27:40.131Z,2.07
2018-01-05T21:30:07.825Z,5.50
2018-01-05T21:32:36.254Z,8.60
2018-01-05T21:35:04.093Z,12.60
2018-01-05T21:37:31.846Z,7.97
2018-01-05T21:40:00.668Z,8.37
2018-01-05T21:42:28.296Z,6.43
2018-01-05T21:44:55.942Z,5.43
2018-01-05T21:47:24.324Z,6.30
2018-01-05T21:49:51.960Z,3.60
2018-01-05T21:52:19.578Z,7.17
2018-01-05T21:54:47.287Z,3.80
2018-01-05T21:57:14.879Z,4.33
2018-01-05T21:59:42.520Z,3.00
2018-01-05T22:02:10.148Z,3.63
2018-01-05T22:04:37.785Z,3.80
2018-01-05T22:07:05.425Z,3.67
2018-01-05T22:09:32.991Z,2.30
2018-01-05T22:12:00.724Z,4.63
2018-01-05T22:14:29.104Z,4.37
2018-01-05T22:16:56.694Z,4.67
2018-01-05T22:19:24.657Z,3.20
2018-01-05T22:21:52.301Z,4.17
2018-01-05T22:24:19.916Z,6.80
2018-01-05T22:26:47.576Z,3.73
2018-01-05T22:29:15.226Z,9.80
2018-01-05T22:31:42.860Z,4.00
2018-01-05T22:34:10.472Z,4.10
2018-01-05T22:36:38.099Z,3.30
2018-01-05T22:39:05.721Z,1.67
2018-01-05T22:41:33.316Z,13.50
2018-01-05T22:44:00.927Z,2.97
2018-01-05T22:46:29.327Z,9.40
2018-01-05T22:48:56.936Z,2.97
2018-01-05T22:51:24.573Z,15.63
2018-01-05T22:53:52.189Z,4.03
2018-01-05T22:56:20.592Z,5.57
2018-01-05T22:58:48.194Z,3.43
2018-01-05T23:01:15.835Z,3.43
2018-01-05T23:03:43.451Z,2.57
2018-01-05T23:06:11.069Z,2.20
2018-01-05T23:08:38.708Z,2.37
2018-01-05T23:11:06.275Z,2.17
2018-01-05T23:13:33.899Z,3.60
2018-01-05T23:16:01.509Z,3.20
2018-01-05T23:18:29.146Z,2.63
2018-01-05T23:20:56.756Z,3.40
2018-01-05T23:23:25.165Z,4.37
2018-01-05T23:25:52.732Z,3.63
2018-01-05T23:28:20.360Z,3.00
2018-01-05T23:30:48.744Z,4.17
2018-01-05T23:33:17.156Z,2.87
2018-01-05T23:35:44.765Z,3.83
2018-01-05T23:38:12.433Z,1.40
2018-01-05T23:40:40.028Z,1.77
2018-01-05T23:43:07.664Z,2.80
2018-01-05T23:45:35.847Z,5.30
2018-01-05T23:48:03.486Z,1.73
2018-01-05T23:50:31.116Z,3.93
2018-01-05T23:52:58.743Z,2.13
2018-01-05T23:55:26.344Z,3.23
2018-01-05T23:57:53.981Z,1.70
